Time;durP1;ratioP1;P1;durP2;ratioP2;P2;SDS_P1;SDS_P2;PMS_P1;PMS_P2;Temp;Humidity;BMP_temperature;BMP_pressure;BME280_temperature;BME280_humidity;BME280_pressure;Samples;Min_cycle;Max_cycle;Signal;HPM_P1;HPM_P2
2023/01/17 01:39:54;;;;;;;1.92;0.60;;;;;;;;;;5036274;28;20423;-74
2023/01/17 01:42:21;;;;;;;3.65;0.65;;;;;;;;;;4904342;28;20042;-74
2023/01/17 01:44:49;;;;;;;1.58;0.47;;;;;;;;;;4918486;28;20057;-74
2023/01/17 01:50:05;;;;;;;1.23;0.28;;;;;;;;;;5081784;27;20443;-74
2023/01/17 01:52:33;;;;;;;0.35;0.30;;;;;;;;;;4936933;28;20111;-74
2023/01/17 02:00:15;;;;;;;0.50;0.20;;;;;;;;;;5048474;27;20438;-72
2023/01/17 02:02:43;;;;;;;0.82;0.47;;;;;;;;;;4973452;28;20073;-73
2023/01/17 02:05:11;;;;;;;2.28;0.25;;;;;;;;;;4960020;28;20051;-73
2023/01/17 02:10:20;;;;;;;1.48;0.30;;;;;;;;;;4993494;27;20494;-72
2023/01/17 02:12:47;;;;;;;;;;;;;;;;;;4942365;28;20050;-73
2023/01/17 02:15:16;;;;;;;0.65;0.30;;;;;;;;;;4922107;28;19926;-72
2023/01/17 02:17:47;;;;;;;1.98;0.30;;;;;;;;;;4938631;28;20085;-72
2023/01/17 02:20:35;;;;;;;0.80;0.38;;;;;;;;;;4916048;28;20063;-72
2023/01/17 02:23:18;;;;;;;0.25;0.20;;;;;;;;;;4935569;28;20119;-72
2023/01/17 02:26:03;;;;;;;2.97;0.40;;;;;;;;;;4883754;28;20058;-72
2023/01/17 02:28:39;;;;;;;1.17;0.30;;;;;;;;;;4875478;28;20107;-73
2023/01/17 02:31:14;;;;;;;0.20;0.20;;;;;;;;;;4895943;28;20146;-72
2023/01/17 02:33:46;;;;;;;0.10;0.10;;;;;;;;;;4917359;28;20058;-73
2023/01/17 02:36:18;;;;;;;2.10;0.30;;;;;;;;;;4952599;28;20376;-72
2023/01/17 02:38:52;;;;;;;0.47;0.35;;;;;;;;;;4892772;28;20055;-73
2023/01/17 02:41:18;;;;;;;2.50;0.30;;;;;;;;;;4886640;28;20464;-73
2023/01/17 02:54:09;;;;;;;0.55;0.20;;;;;;;;;;5036355;27;20412;-74
2023/01/17 02:56:42;;;;;;;0.88;0.10;;;;;;;;;;4992528;28;20052;-74
2023/01/17 03:02:15;;;;;;;0.45;0.30;;;;;;;;;;5062749;27;20165;-76
2023/01/17 03:07:36;;;;;;;1.17;0.30;;;;;;;;;;4971201;28;20509;-74
2023/01/17 03:10:06;;;;;;;0.20;0.20;;;;;;;;;;4901309;28;20055;-74
2023/01/17 03:17:46;;;;;;;0.47;0.28;;;;;;;;;;5006139;28;20446;-72
2023/01/17 03:20:13;;;;;;;1.17;0.30;;;;;;;;;;4992544;28;20136;-73
2023/01/17 03:22:40;;;;;;;1.25;0.10;;;;;;;;;;4971192;28;20485;-73
2023/01/17 03:29:57;;;;;;;0.43;0.35;;;;;;;;;;4831658;29;20060;-73
2023/01/17 03:42:07;;;;;;;0.50;0.13;;;;;;;;;;4818608;29;20041;-74
2023/01/17 03:44:34;;;;;;;0.93;0.20;;;;;;;;;;4854454;29;20048;-73
2023/01/17 03:47:00;;;;;;;0.55;0.20;;;;;;;;;;4848748;28;20043;-73
2023/01/17 03:49:27;;;;;;;0.75;0.20;;;;;;;;;;4874599;28;20047;-71
2023/01/17 03:51:54;;;;;;;1.10;0.30;;;;;;;;;;4871274;28;20059;-72
2023/01/17 03:54:21;;;;;;;0.90;0.30;;;;;;;;;;4960276;28;20121;-72
2023/01/17 03:56:48;;;;;;;0.30;0.10;;;;;;;;;;4931859;28;20151;-72
2023/01/17 04:05:12;;;;;;;1.13;0.32;;;;;;;;;;4846574;29;20056;-74
2023/01/17 04:07:39;;;;;;;0.57;0.15;;;;;;;;;;4872012;28;20059;-75
2023/01/17 04:10:14;;;;;;;0.20;0.20;;;;;;;;;;4945986;28;20141;-75
2023/01/17 04:17:50;;;;;;;0.93;0.30;;;;;;;;;;5028031;27;20446;-72
2023/01/17 04:20:21;;;;;;;0.10;0.10;;;;;;;;;;4969035;28;20057;-72
2023/01/17 04:22:48;;;;;;;2.65;0.32;;;;;;;;;;4982801;28;20045;-73
2023/01/17 04:25:15;;;;;;;0.63;0.30;;;;;;;;;;4943903;28;20081;-71
2023/01/17 04:27:41;;;;;;;0.50;0.22;;;;;;;;;;4940513;28;20042;-71
2023/01/17 04:30:09;;;;;;;0.75;0.20;;;;;;;;;;4932061;28;20134;-71
2023/01/17 04:32:36;;;;;;;1.02;0.17;;;;;;;;;;4962955;28;20128;-73
2023/01/17 04:35:08;;;;;;;0.10;0.10;;;;;;;;;;4950025;28;20050;-71
2023/01/17 04:37:35;;;;;;;1.25;0.38;;;;;;;;;;4927296;28;20061;-72
2023/01/17 04:40:02;;;;;;;0.52;0.22;;;;;;;;;;4942373;28;20073;-72
2023/01/17 04:42:29;;;;;;;3.88;0.40;;;;;;;;;;4965868;28;20058;-72
2023/01/17 04:44:56;;;;;;;3.92;0.50;;;;;;;;;;4974780;28;20133;-71
2023/01/17 04:52:17;;;;;;;2.88;0.80;;;;;;;;;;4860657;29;20052;-72
2023/01/17 04:54:44;;;;;;;2.30;0.38;;;;;;;;;;4932626;28;20034;-71
2023/01/17 04:57:11;;;;;;;1.35;0.80;;;;;;;;;;4854843;29;20056;-71
2023/01/17 04:59:42;;;;;;;4.60;0.57;;;;;;;;;;4896105;28;20075;-71
2023/01/17 05:02:09;;;;;;;0.47;0.22;;;;;;;;;;4911322;28;20062;-71
2023/01/17 05:04:39;;;;;;;3.22;0.60;;;;;;;;;;4921797;28;20063;-71
2023/01/17 05:07:06;;;;;;;0.88;0.60;;;;;;;;;;4881836;28;20079;-71
2023/01/17 05:09:35;;;;;;;1.23;0.57;;;;;;;;;;4858159;29;20052;-72
2023/01/17 05:12:08;;;;;;;3.45;0.65;;;;;;;;;;4832944;29;20057;-72
2023/01/17 05:14:35;;;;;;;0.77;0.50;;;;;;;;;;4855659;29;20052;-71
2023/01/17 05:17:02;;;;;;;3.97;0.88;;;;;;;;;;4942154;28;20054;-71
2023/01/17 05:19:28;;;;;;;3.38;0.80;;;;;;;;;;4969046;28;20050;-71
2023/01/17 05:22:02;;;;;;;2.78;0.80;;;;;;;;;;4978960;28;20061;-71
2023/01/17 05:24:29;;;;;;;3.20;0.70;;;;;;;;;;4978015;28;20076;-71
2023/01/17 05:27:01;;;;;;;2.47;0.70;;;;;;;;;;4967248;28;20141;-71
2023/01/17 05:29:28;;;;;;;2.03;0.55;;;;;;;;;;4952964;28;20042;-71
2023/01/17 05:31:55;;;;;;;3.10;1.27;;;;;;;;;;4947767;28;20050;-71
2023/01/17 05:34:22;;;;;;;1.80;0.80;;;;;;;;;;4957979;28;20074;-71
2023/01/17 05:36:49;;;;;;;3.90;0.80;;;;;;;;;;4939989;28;20050;-72
2023/01/17 05:39:16;;;;;;;2.25;0.73;;;;;;;;;;4944322;28;20054;-71
2023/01/17 05:41:42;;;;;;;0.40;0.40;;;;;;;;;;4955364;28;20109;-71
2023/01/17 05:44:10;;;;;;;3.10;0.90;;;;;;;;;;4977241;28;20157;-71
2023/01/17 05:46:37;;;;;;;1.52;0.70;;;;;;;;;;4926480;28;20063;-71
2023/01/17 05:49:05;;;;;;;2.30;0.88;;;;;;;;;;4945280;28;20050;-72
2023/01/17 05:51:36;;;;;;;5.28;0.68;;;;;;;;;;4947192;28;21319;-71
2023/01/17 05:54:03;;;;;;;1.33;0.60;;;;;;;;;;4929772;28;20055;-71
2023/01/17 05:59:45;;;;;;;0.90;0.70;;;;;;;;;;5061566;27;20138;-74
2023/01/17 06:02:12;;;;;;;1.92;0.70;;;;;;;;;;4996901;28;20054;-72
2023/01/17 06:17:14;;;;;;;2.63;0.80;;;;;;;;;;4994484;27;20462;-71
2023/01/17 06:19:44;;;;;;;4.43;0.82;;;;;;;;;;4964891;28;20061;-73
2023/01/17 06:22:11;;;;;;;2.30;0.82;;;;;;;;;;5002950;28;20099;-71
2023/01/17 06:24:37;;;;;;;4.22;1.00;;;;;;;;;;4993714;28;20434;-71
2023/01/17 06:27:06;;;;;;;3.60;1.00;;;;;;;;;;4981191;28;20168;-71
2023/01/17 06:29:33;;;;;;;4.00;0.93;;;;;;;;;;4922220;28;20056;-72
2023/01/17 06:40:23;;;;;;;5.38;1.02;;;;;;;;;;4907077;28;20077;-72
2023/01/17 06:50:57;;;;;;;6.05;1.10;;;;;;;;;;4993352;27;20141;-73
2023/01/17 06:59:19;;;;;;;3.58;1.02;;;;;;;;;;5026417;27;20491;-74
2023/01/17 07:09:50;;;;;;;3.22;1.13;;;;;;;;;;4871919;29;20049;-70
2023/01/17 07:12:17;;;;;;;2.75;0.93;;;;;;;;;;4810853;29;20058;-70
2023/01/17 07:14:44;;;;;;;2.83;1.23;;;;;;;;;;4807763;29;20046;-70
2023/01/17 07:17:10;;;;;;;2.75;1.10;;;;;;;;;;4888941;28;20081;-70
2023/01/17 07:19:37;;;;;;;2.35;0.90;;;;;;;;;;4959507;28;21327;-70
2023/01/17 07:22:04;;;;;;;3.88;0.98;;;;;;;;;;4924528;28;20115;-70
2023/01/17 07:24:31;;;;;;;2.28;1.08;;;;;;;;;;4954528;28;20126;-70
2023/01/17 07:27:02;;;;;;;2.58;1.00;;;;;;;;;;4924055;28;20064;-70
2023/01/17 07:29:30;;;;;;;4.57;1.42;;;;;;;;;;4936560;28;20935;-72
2023/01/17 07:31:59;;;;;;;2.55;0.93;;;;;;;;;;4930561;28;20058;-73
2023/01/17 07:34:27;;;;;;;3.25;1.27;;;;;;;;;;4863147;29;20055;-73
2023/01/17 07:39:42;;;;;;;1.92;0.93;;;;;;;;;;5051410;27;20400;-71
2023/01/17 07:42:09;;;;;;;4.68;1.35;;;;;;;;;;5021998;28;20064;-71
2023/01/17 07:44:39;;;;;;;1.50;1.00;;;;;;;;;;5018197;28;20052;-70
2023/01/17 07:47:10;;;;;;;3.53;1.67;;;;;;;;;;5026476;28;20176;-71
2023/01/17 07:49:36;;;;;;;3.05;0.95;;;;;;;;;;5030096;28;20056;-71
2023/01/17 07:52:03;;;;;;;2.22;0.90;;;;;;;;;;5048980;28;20051;-71
2023/01/17 07:54:32;;;;;;;3.63;1.30;;;;;;;;;;5008120;28;20131;-70
2023/01/17 07:57:01;;;;;;;3.33;1.20;;;;;;;;;;4997467;28;20052;-70
2023/01/17 07:59:29;;;;;;;2.70;1.20;;;;;;;;;;5023338;28;20211;-71
2023/01/17 08:01:58;;;;;;;4.63;1.30;;;;;;;;;;5044748;28;20125;-71
2023/01/17 08:04:27;;;;;;;3.28;1.17;;;;;;;;;;5048327;28;20074;-71
2023/01/17 08:06:59;;;;;;;4.50;1.25;;;;;;;;;;5043451;28;20056;-71
2023/01/17 08:09:29;;;;;;;4.07;1.48;;;;;;;;;;5038007;28;20170;-70
2023/01/17 08:11:55;;;;;;;7.18;1.38;;;;;;;;;;5044146;28;20113;-71
2023/01/17 08:14:24;;;;;;;4.22;1.35;;;;;;;;;;5028891;28;20065;-70
2023/01/17 08:16:52;;;;;;;2.17;1.20;;;;;;;;;;5074124;27;20075;-70
2023/01/17 08:19:22;;;;;;;2.28;1.13;;;;;;;;;;4998748;28;20060;-70
2023/01/17 08:21:49;;;;;;;3.33;1.30;;;;;;;;;;5008263;28;20056;-70
2023/01/17 08:24:15;;;;;;;4.22;1.30;;;;;;;;;;5031324;28;20080;-70
2023/01/17 08:26:42;;;;;;;8.13;1.60;;;;;;;;;;5014611;28;20056;-71
2023/01/17 08:29:10;;;;;;;4.63;1.50;;;;;;;;;;5011899;28;20088;-71
2023/01/17 08:31:38;;;;;;;5.40;1.58;;;;;;;;;;5018082;28;20056;-71
2023/01/17 08:34:05;;;;;;;5.15;1.48;;;;;;;;;;5028219;28;20116;-70
2023/01/17 08:36:36;;;;;;;3.47;1.42;;;;;;;;;;5038267;28;20043;-70
2023/01/17 08:39:05;;;;;;;7.93;1.75;;;;;;;;;;5036174;28;20059;-70
2023/01/17 08:41:34;;;;;;;3.88;1.67;;;;;;;;;;5041607;28;20048;-71
2023/01/17 08:44:02;;;;;;;3.25;1.63;;;;;;;;;;5055118;28;20166;-70
2023/01/17 08:46:32;;;;;;;4.72;1.92;;;;;;;;;;5062338;28;20056;-70
2023/01/17 08:49:05;;;;;;;4.68;2.00;;;;;;;;;;4985510;28;20060;-71
2023/01/17 08:51:32;;;;;;;7.60;2.35;;;;;;;;;;5031511;28;20188;-70
2023/01/17 08:53:59;;;;;;;7.82;2.13;;;;;;;;;;5030537;28;20044;-71
2023/01/17 08:56:27;;;;;;;8.80;2.40;;;;;;;;;;5017924;28;20190;-71
2023/01/17 08:58:56;;;;;;;7.95;2.40;;;;;;;;;;4996556;28;20052;-70
2023/01/17 09:01:23;;;;;;;7.65;2.42;;;;;;;;;;5006731;28;20247;-70
2023/01/17 09:03:50;;;;;;;7.40;2.47;;;;;;;;;;5023651;28;20135;-71
2023/01/17 09:06:18;;;;;;;7.60;2.53;;;;;;;;;;5040987;28;20116;-70
2023/01/17 09:08:48;;;;;;;5.47;2.20;;;;;;;;;;5011486;28;20215;-71
2023/01/17 09:11:16;;;;;;;4.97;2.05;;;;;;;;;;5016863;28;20048;-71
2023/01/17 09:13:46;;;;;;;7.90;2.72;;;;;;;;;;5019075;28;20060;-71
2023/01/17 09:16:13;;;;;;;6.85;2.80;;;;;;;;;;5015078;28;20055;-70
2023/01/17 09:18:39;;;;;;;8.38;2.53;;;;;;;;;;5000102;28;20056;-70
2023/01/17 09:21:10;;;;;;;6.97;2.72;;;;;;;;;;5016030;28;20144;-71
2023/01/17 09:23:42;;;;;;;5.82;2.22;;;;;;;;;;5017862;28;20052;-71
2023/01/17 09:26:16;;;;;;;6.88;2.85;;;;;;;;;;5025014;28;20063;-70
2023/01/17 09:28:42;;;;;;;9.95;2.90;;;;;;;;;;4992540;28;20060;-70
2023/01/17 09:31:09;;;;;;;5.63;2.83;;;;;;;;;;5034080;28;20163;-70
2023/01/17 09:33:41;;;;;;;8.13;2.83;;;;;;;;;;5001581;28;20055;-70
2023/01/17 09:36:09;;;;;;;7.63;2.67;;;;;;;;;;5013455;28;20057;-73
2023/01/17 09:38:36;;;;;;;7.05;2.97;;;;;;;;;;4991407;28;20060;-72
2023/01/17 09:44:13;;;;;;;10.90;3.03;;;;;;;;;;5034422;27;20672;-72
2023/01/17 09:46:43;;;;;;;6.93;3.28;;;;;;;;;;4915482;28;20119;-72
2023/01/17 09:54:21;;;;;;;7.47;3.08;;;;;;;;;;5040333;27;20427;-71
2023/01/17 09:56:50;;;;;;;8.73;3.05;;;;;;;;;;5000515;28;20055;-72
2023/01/17 09:59:26;;;;;;;6.47;2.92;;;;;;;;;;4998498;28;20155;-72
2023/01/17 10:01:57;;;;;;;7.68;3.10;;;;;;;;;;5026437;28;20044;-72
2023/01/17 10:04:34;;;;;;;6.50;3.00;;;;;;;;;;5003634;28;20159;-71
2023/01/17 10:07:11;;;;;;;8.90;3.10;;;;;;;;;;5032321;28;20041;-71
2023/01/17 10:09:52;;;;;;;5.78;2.83;;;;;;;;;;5006487;28;20060;-71
2023/01/17 10:12:24;;;;;;;11.98;3.35;;;;;;;;;;5015951;28;20115;-71
2023/01/17 10:14:56;;;;;;;6.72;3.10;;;;;;;;;;5015601;28;20234;-71
2023/01/17 10:17:30;;;;;;;7.30;3.20;;;;;;;;;;5009443;28;20061;-72
2023/01/17 10:20:05;;;;;;;10.93;3.55;;;;;;;;;;4951879;28;20065;-72
2023/01/17 10:22:41;;;;;;;7.13;3.20;;;;;;;;;;5003949;28;20049;-71
2023/01/17 10:25:31;;;;;;;6.85;3.38;;;;;;;;;;4991531;28;21084;-70
2023/01/17 10:28:05;;;;;;;8.02;3.15;;;;;;;;;;4973387;28;20045;-71
2023/01/17 10:35:59;;;;;;;9.68;3.45;;;;;;;;;;5020333;27;20435;-73
2023/01/17 10:38:34;;;;;;;10.38;3.50;;;;;;;;;;4934880;28;20499;-73
2023/01/17 10:41:07;;;;;;;5.35;2.67;;;;;;;;;;4878845;28;20061;-72
2023/01/17 10:53:32;;;;;;;7.35;3.30;;;;;;;;;;4880942;28;20047;-73
2023/01/17 10:56:00;;;;;;;7.53;3.15;;;;;;;;;;4929680;28;20052;-72
2023/01/17 10:58:27;;;;;;;7.10;3.25;;;;;;;;;;4937296;28;20350;-74
2023/01/17 11:00:58;;;;;;;9.13;3.17;;;;;;;;;;4954628;28;20066;-73
2023/01/17 11:03:27;;;;;;;8.50;3.35;;;;;;;;;;4915601;28;20064;-74
2023/01/17 11:06:14;;;;;;;6.15;3.00;;;;;;;;;;4897881;28;20151;-74
2023/01/17 11:14:19;;;;;;;7.40;3.15;;;;;;;;;;5002259;27;20730;-74
2023/01/17 11:17:00;;;;;;;7.00;2.67;;;;;;;;;;4919552;28;20042;-74
2023/01/17 11:32:51;;;;;;;8.45;3.70;;;;;;;;;;6081900;22;2104248;-73
2023/01/17 11:40:30;;;;;;;8.40;2.90;;;;;;;;;;5026394;27;20846;-73
2023/01/17 11:48:18;;;;;;;10.40;2.67;;;;;;;;;;4974190;27;20550;-72
2023/01/17 11:56:04;;;;;;;7.43;3.17;;;;;;;;;;5007746;27;20577;-73
2023/01/17 12:14:07;;;;;;;7.63;2.60;;;;;;;;;;5019464;27;1402699;-71
2023/01/17 12:16:40;;;;;;;9.45;3.13;;;;;;;;;;5035503;28;20071;-71
2023/01/17 12:19:24;;;;;;;8.48;2.83;;;;;;;;;;5033968;28;20155;-71
2023/01/17 12:21:54;;;;;;;6.88;2.92;;;;;;;;;;5009253;28;20055;-71
2023/01/17 12:24:30;;;;;;;7.03;2.50;;;;;;;;;;4981594;28;20049;-71
2023/01/17 12:27:01;;;;;;;6.93;2.78;;;;;;;;;;5015774;28;20115;-71
2023/01/17 12:29:49;;;;;;;6.75;2.78;;;;;;;;;;5003740;28;20052;-71
2023/01/17 12:32:28;;;;;;;8.35;2.90;;;;;;;;;;5024510;28;20223;-72
2023/01/17 12:40:29;;;;;;;6.43;2.47;;;;;;;;;;4910608;28;20050;-71
2023/01/17 12:43:01;;;;;;;8.07;2.83;;;;;;;;;;4948787;28;20118;-71
2023/01/17 12:45:33;;;;;;;9.52;2.75;;;;;;;;;;4948811;28;20054;-71
2023/01/17 12:48:06;;;;;;;8.35;2.60;;;;;;;;;;4983032;28;20109;-72
2023/01/17 12:50:39;;;;;;;7.95;2.63;;;;;;;;;;4905756;28;20147;-72
2023/01/17 12:53:16;;;;;;;7.22;2.95;;;;;;;;;;4917487;28;20074;-73
2023/01/17 12:55:50;;;;;;;8.40;2.58;;;;;;;;;;4905163;28;20066;-72
2023/01/17 12:58:20;;;;;;;6.47;2.60;;;;;;;;;;4919831;28;20057;-71
2023/01/17 13:00:49;;;;;;;6.88;2.80;;;;;;;;;;4930709;28;20066;-71
2023/01/17 13:03:25;;;;;;;9.15;2.83;;;;;;;;;;4949863;28;20124;-73
2023/01/17 13:05:55;;;;;;;8.55;3.00;;;;;;;;;;4989675;28;20151;-70
2023/01/17 13:08:26;;;;;;;11.38;3.00;;;;;;;;;;5038291;28;20068;-72
2023/01/17 13:10:54;;;;;;;5.65;2.30;;;;;;;;;;5034687;28;20048;-71
2023/01/17 13:13:23;;;;;;;6.55;3.00;;;;;;;;;;4987479;28;20056;-71
2023/01/17 13:15:55;;;;;;;5.63;2.33;;;;;;;;;;4980147;28;20150;-71
2023/01/17 13:18:25;;;;;;;5.57;2.40;;;;;;;;;;5010741;28;20159;-71
2023/01/17 13:21:05;;;;;;;9.07;2.97;;;;;;;;;;5010644;28;20148;-71
2023/01/17 13:23:40;;;;;;;7.18;2.30;;;;;;;;;;5022525;28;20052;-70
2023/01/17 13:26:15;;;;;;;8.33;2.70;;;;;;;;;;5003198;28;20053;-71
2023/01/17 13:28:47;;;;;;;11.73;2.67;;;;;;;;;;4990438;28;20322;-69
2023/01/17 13:31:28;;;;;;;5.72;2.10;;;;;;;;;;4973553;28;20045;-71
2023/01/17 13:34:16;;;;;;;6.40;2.40;;;;;;;;;;4968577;28;20044;-68
2023/01/17 13:36:56;;;;;;;5.40;2.23;;;;;;;;;;5001479;28;20067;-71
2023/01/17 13:39:30;;;;;;;4.82;2.30;;;;;;;;;;4986790;28;20403;-71
2023/01/17 13:42:07;;;;;;;7.00;2.15;;;;;;;;;;4995428;28;20044;-72
2023/01/17 13:44:35;;;;;;;6.20;2.30;;;;;;;;;;5018101;28;20056;-72
2023/01/17 13:47:03;;;;;;;6.38;2.13;;;;;;;;;;4966340;28;20050;-72
2023/01/17 13:57:12;;;;;;;7.03;2.27;;;;;;;;;;4870291;28;20120;-72
2023/01/17 14:02:27;;;;;;;5.32;2.17;;;;;;;;;;4882275;28;20139;-71
2023/01/17 14:05:14;;;;;;;5.65;2.15;;;;;;;;;;4925733;28;20069;-71
2023/01/17 14:07:47;;;;;;;5.32;2.35;;;;;;;;;;4904803;28;20055;-71
2023/01/17 14:10:25;;;;;;;5.68;2.00;;;;;;;;;;4892342;28;20059;-73
2023/01/17 14:12:52;;;;;;;5.65;2.55;;;;;;;;;;4944920;28;20057;-73
2023/01/17 14:20:41;;;;;;;4.82;2.03;;;;;;;;;;4848066;29;20048;-71
2023/01/17 14:23:25;;;;;;;5.03;2.03;;;;;;;;;;4938454;28;20088;-72
2023/01/17 14:25:52;;;;;;;5.38;2.50;;;;;;;;;;4974450;28;20185;-72
2023/01/17 14:28:23;;;;;;;9.15;2.20;;;;;;;;;;4956151;28;20041;-73
2023/01/17 14:36:20;;;;;;;6.07;2.25;;;;;;;;;;5141438;27;20449;-69
2023/01/17 14:38:47;;;;;;;5.07;2.33;;;;;;;;;;5068838;28;20136;-70
2023/01/17 14:41:17;;;;;;;5.07;2.17;;;;;;;;;;5003257;27;20049;-73
2023/01/17 14:43:49;;;;;;;5.50;1.90;;;;;;;;;;5033364;28;20052;-69
2023/01/17 14:46:24;;;;;;;5.60;2.20;;;;;;;;;;5015755;28;20139;-70
2023/01/17 14:48:51;;;;;;;4.40;1.95;;;;;;;;;;5030164;28;20052;-70
2023/01/17 14:51:23;;;;;;;4.65;2.00;;;;;;;;;;4972336;28;20058;-69
2023/01/17 14:53:54;;;;;;;5.65;1.95;;;;;;;;;;4997459;28;20088;-69
2023/01/17 14:56:24;;;;;;;4.57;1.98;;;;;;;;;;4931426;28;20055;-71
2023/01/17 15:04:25;;;;;;;4.65;1.88;;;;;;;;;;4909086;28;20050;-70
2023/01/17 15:06:54;;;;;;;4.70;2.30;;;;;;;;;;4937473;28;20062;-72
2023/01/17 15:09:25;;;;;;;3.67;1.85;;;;;;;;;;4916948;28;20111;-71
2023/01/17 15:11:56;;;;;;;5.10;2.10;;;;;;;;;;4923572;28;20058;-72
2023/01/17 15:14:27;;;;;;;4.20;1.70;;;;;;;;;;4991524;28;20041;-73
2023/01/17 15:16:54;;;;;;;4.47;1.92;;;;;;;;;;4985502;28;20148;-70
2023/01/17 15:19:24;;;;;;;5.10;1.92;;;;;;;;;;5055056;28;20071;-71
2023/01/17 15:21:54;;;;;;;3.63;1.88;;;;;;;;;;5032864;28;20047;-72
2023/01/17 15:24:23;;;;;;;5.78;1.90;;;;;;;;;;5063378;28;20122;-70
2023/01/17 15:26:50;;;;;;;4.35;1.33;;;;;;;;;;5032807;28;20068;-70
2023/01/17 15:29:24;;;;;;;5.05;1.92;;;;;;;;;;4992907;28;20048;-70
2023/01/17 15:31:57;;;;;;;5.65;1.95;;;;;;;;;;4948440;28;20051;-72
2023/01/17 15:37:14;;;;;;;4.57;2.00;;;;;;;;;;4846446;29;20209;-73
2023/01/17 15:39:44;;;;;;;5.40;1.70;;;;;;;;;;4903239;28;20060;-71
2023/01/17 15:50:46;;;;;;;2.95;1.38;;;;;;;;;;5039316;27;20440;-71
2023/01/17 15:53:28;;;;;;;4.32;1.40;;;;;;;;;;4968951;28;20062;-70
2023/01/17 15:55:57;;;;;;;3.40;1.45;;;;;;;;;;5036655;28;20220;-73
2023/01/17 15:58:26;;;;;;;5.15;1.65;;;;;;;;;;5037976;28;20053;-75
2023/01/17 16:00:53;;;;;;;4.53;1.67;;;;;;;;;;4981692;28;20074;-74
2023/01/17 16:03:28;;;;;;;4.78;1.60;;;;;;;;;;4950689;28;20062;-74
2023/01/17 16:05:58;;;;;;;4.30;1.90;;;;;;;;;;4992174;28;20119;-76
2023/01/17 16:13:57;;;;;;;5.03;1.60;;;;;;;;;;5044058;27;20450;-73
2023/01/17 16:16:25;;;;;;;4.30;1.63;;;;;;;;;;4981431;28;20160;-73
2023/01/17 16:18:58;;;;;;;5.53;1.88;;;;;;;;;;4972996;28;20058;-72
2023/01/17 16:21:26;;;;;;;4.85;1.90;;;;;;;;;;4957115;28;20057;-72
2023/01/17 16:23:54;;;;;;;5.77;2.13;;;;;;;;;;4979306;28;20084;-72
2023/01/17 16:31:32;;;;;;;5.93;2.13;;;;;;;;;;4919013;27;20525;-76
2023/01/17 16:43:59;;;;;;;7.05;2.28;;;;;;;;;;5033787;27;20414;-72
2023/01/17 16:54:06;;;;;;;5.10;1.95;;;;;;;;;;4994239;28;20494;-75
2023/01/17 16:56:37;;;;;;;4.40;2.00;;;;;;;;;;4941761;28;20058;-76
2023/01/17 16:59:05;;;;;;;8.23;2.22;;;;;;;;;;4953654;28;20118;-76
2023/01/17 17:06:48;;;;;;;6.50;2.45;;;;;;;;;;4976764;28;20475;-73
2023/01/17 17:09:20;;;;;;;5.68;2.35;;;;;;;;;;4950172;28;20058;-73
2023/01/17 17:11:47;;;;;;;5.68;2.05;;;;;;;;;;4937512;28;20064;-74
2023/01/17 17:14:16;;;;;;;8.35;2.60;;;;;;;;;;4921867;28;20062;-76
2023/01/17 17:16:43;;;;;;;;;;;;;;;;;;4894467;28;20501;-77
2023/01/17 17:19:10;;;;;;;5.68;2.28;;;;;;;;;;4897808;28;20182;-75
2023/01/17 17:24:27;;;;;;;8.52;2.20;;;;;;;;;;4968800;28;20453;-74
2023/01/17 17:32:10;;;;;;;7.13;2.08;;;;;;;;;;5029290;27;20470;-73
2023/01/17 17:34:37;;;;;;;5.97;2.30;;;;;;;;;;4944987;28;20062;-72
2023/01/17 17:37:30;;;;;;;6.03;2.13;;;;;;;;;;4964080;28;20046;-74
2023/01/17 17:39:59;;;;;;;9.38;2.58;;;;;;;;;;4955506;28;20054;-74
2023/01/17 18:17:54;;;;;;;8.30;2.72;;;;;;;;;;6153490;22;20029;-75
2023/01/17 18:25:37;;;;;;;6.82;2.65;;;;;;;;;;5043703;27;20586;-71
2023/01/17 18:41:03;;;;;;;6.65;2.60;;;;;;;;;;4989549;28;20457;-73
2023/01/17 18:48:40;;;;;;;6.05;2.50;;;;;;;;;;5005280;27;20503;-72
2023/01/17 18:51:10;;;;;;;5.47;2.20;;;;;;;;;;4969879;28;20209;-75
2023/01/17 18:53:38;;;;;;;6.80;2.58;;;;;;;;;;4863126;28;20064;-73
2023/01/17 18:56:06;;;;;;;8.77;2.72;;;;;;;;;;4876289;28;20059;-73
2023/01/17 18:58:35;;;;;;;5.80;2.47;;;;;;;;;;4924036;28;20116;-73
2023/01/17 19:01:09;;;;;;;6.40;2.47;;;;;;;;;;4924388;28;20055;-75
2023/01/17 19:03:36;;;;;;;4.65;2.25;;;;;;;;;;4908513;28;20927;-72
2023/01/17 19:06:05;;;;;;;5.72;2.67;;;;;;;;;;4928657;28;20114;-72
2023/01/17 19:08:33;;;;;;;5.75;2.30;;;;;;;;;;4947800;28;20046;-73
2023/01/17 19:11:00;;;;;;;8.13;2.30;;;;;;;;;;4939144;28;20053;-71
2023/01/17 19:13:27;;;;;;;5.50;2.40;;;;;;;;;;4881523;28;20400;-74
2023/01/17 19:15:53;;;;;;;4.30;2.22;;;;;;;;;;4899193;28;20122;-73
2023/01/17 19:18:21;;;;;;;7.35;2.50;;;;;;;;;;4866198;29;20281;-72
2023/01/17 19:20:48;;;;;;;7.75;2.78;;;;;;;;;;4851074;29;20516;-71
2023/01/17 19:28:22;;;;;;;6.75;2.55;;;;;;;;;;4985832;27;20455;-72
2023/01/17 19:30:49;;;;;;;;;;;;;;;;;;4946122;28;20046;-72
2023/01/17 19:33:18;;;;;;;6.45;2.53;;;;;;;;;;4936117;28;20278;-72
2023/01/17 19:35:46;;;;;;;8.43;2.60;;;;;;;;;;4932372;28;20077;-72
2023/01/17 19:38:13;;;;;;;8.02;2.78;;;;;;;;;;4901081;28;20235;-73
2023/01/17 19:45:54;;;;;;;5.68;2.63;;;;;;;;;;4973090;27;20698;-72
2023/01/17 19:53:29;;;;;;;7.55;2.60;;;;;;;;;;4972848;27;20451;-71
2023/01/17 20:01:11;;;;;;;7.90;2.45;;;;;;;;;;5031577;27;20459;-70
2023/01/17 20:03:38;;;;;;;5.85;2.63;;;;;;;;;;5002817;28;20086;-70
2023/01/17 20:06:08;;;;;;;6.30;2.58;;;;;;;;;;4962615;28;20081;-69
2023/01/17 20:08:35;;;;;;;6.25;2.30;;;;;;;;;;4985817;28;20057;-72
2023/01/17 20:11:03;;;;;;;7.53;2.92;;;;;;;;;;4970956;28;20049;-72
2023/01/17 20:13:30;;;;;;;5.95;2.40;;;;;;;;;;4952172;28;20707;-72
2023/01/17 20:18:24;;;;;;;7.90;3.00;;;;;;;;;;4911209;28;20085;-71
2023/01/17 20:20:51;;;;;;;7.63;2.70;;;;;;;;;;4951130;28;20081;-72
2023/01/17 20:23:20;;;;;;;8.98;2.65;;;;;;;;;;4969842;28;20062;-72
2023/01/17 20:30:55;;;;;;;9.05;2.92;;;;;;;;;;5112343;27;20476;-69
2023/01/17 20:33:23;;;;;;;7.05;2.70;;;;;;;;;;4984548;28;20072;-70
2023/01/17 20:35:50;;;;;;;7.88;3.28;;;;;;;;;;4969679;28;20045;-69
2023/01/17 20:38:16;;;;;;;9.02;3.00;;;;;;;;;;4980874;28;20047;-69
2023/01/17 20:40:43;;;;;;;8.40;3.05;;;;;;;;;;4997060;28;20165;-69
2023/01/17 20:43:23;;;;;;;7.35;2.95;;;;;;;;;;5005026;28;20071;-69
2023/01/17 20:45:56;;;;;;;8.45;2.80;;;;;;;;;;5001238;28;20208;-69
2023/01/17 20:48:23;;;;;;;8.35;3.60;;;;;;;;;;5002098;28;20053;-70
2023/01/17 20:50:49;;;;;;;9.68;3.00;;;;;;;;;;5033434;28;20072;-70
2023/01/17 20:53:18;;;;;;;7.43;3.38;;;;;;;;;;5024047;28;20089;-70
2023/01/17 20:55:44;;;;;;;6.68;2.63;;;;;;;;;;5050773;28;20055;-70
2023/01/17 20:58:15;;;;;;;7.97;3.03;;;;;;;;;;5017306;28;20062;-70
2023/01/17 21:00:41;;;;;;;7.00;2.97;;;;;;;;;;4995222;28;20057;-70
2023/01/17 21:03:11;;;;;;;8.07;3.20;;;;;;;;;;5066125;28;20044;-70
2023/01/17 21:05:37;;;;;;;6.72;2.72;;;;;;;;;;5021474;28;20082;-70
2023/01/17 21:08:04;;;;;;;7.13;3.03;;;;;;;;;;5049424;28;20641;-70
2023/01/17 21:10:31;;;;;;;7.47;3.03;;;;;;;;;;5032086;28;20083;-69
2023/01/17 21:12:58;;;;;;;9.77;3.20;;;;;;;;;;5050805;28;20117;-70
2023/01/17 21:15:25;;;;;;;7.07;3.50;;;;;;;;;;4993335;28;20542;-70
2023/01/17 21:17:52;;;;;;;13.73;3.88;;;;;;;;;;5004687;28;20081;-69
2023/01/17 21:20:21;;;;;;;7.45;2.95;;;;;;;;;;5023337;28;20144;-70
2023/01/17 21:25:30;;;;;;;8.60;3.22;;;;;;;;;;4978683;28;20045;-69
2023/01/17 21:27:57;;;;;;;8.63;3.55;;;;;;;;;;5009436;28;20058;-69
2023/01/17 21:30:23;;;;;;;9.15;3.67;;;;;;;;;;4960146;28;20061;-69
2023/01/17 21:32:50;;;;;;;8.90;3.45;;;;;;;;;;4983355;28;20153;-69
2023/01/17 21:35:17;;;;;;;14.15;4.32;;;;;;;;;;4978246;28;20185;-70
2023/01/17 21:37:47;;;;;;;8.77;3.50;;;;;;;;;;4997190;28;20136;-69
2023/01/17 21:40:15;;;;;;;8.88;3.75;;;;;;;;;;4933827;28;20069;-70
2023/01/17 21:42:43;;;;;;;10.02;4.15;;;;;;;;;;4974214;28;20050;-69
2023/01/17 21:45:13;;;;;;;9.18;4.13;;;;;;;;;;4939199;28;20050;-69
2023/01/17 21:50:13;;;;;;;12.38;4.57;;;;;;;;;;5021265;28;20056;-68
2023/01/17 21:52:40;;;;;;;11.23;4.00;;;;;;;;;;5008022;28;20049;-69
2023/01/17 22:00:41;;;;;;;12.80;4.28;;;;;;;;;;4988559;28;19931;-70
2023/01/17 22:03:11;;;;;;;12.07;4.03;;;;;;;;;;5005078;28;20060;-69
2023/01/17 22:05:42;;;;;;;10.27;3.92;;;;;;;;;;4962882;28;20055;-70
2023/01/17 22:08:11;;;;;;;10.52;4.18;;;;;;;;;;4967509;28;20064;-70
2023/01/17 22:10:51;;;;;;;10.98;4.35;;;;;;;;;;4951781;28;20046;-70
2023/01/17 22:13:18;;;;;;;10.63;3.85;;;;;;;;;;4971651;28;20176;-70
2023/01/17 22:15:46;;;;;;;11.05;4.22;;;;;;;;;;4964366;28;20046;-69
2023/01/17 22:18:13;;;;;;;12.57;4.10;;;;;;;;;;4998538;28;20187;-70
2023/01/17 22:20:41;;;;;;;8.98;3.88;;;;;;;;;;4985560;28;20049;-69
2023/01/17 22:23:08;;;;;;;10.75;4.70;;;;;;;;;;5008708;28;20127;-70
2023/01/17 22:25:35;;;;;;;8.65;4.10;;;;;;;;;;4974501;28;20271;-70
2023/01/17 22:28:06;;;;;;;12.25;4.28;;;;;;;;;;4982423;28;20106;-70
2023/01/17 22:30:33;;;;;;;9.55;3.88;;;;;;;;;;4986388;28;20065;-70
2023/01/17 22:33:00;;;;;;;9.95;3.83;;;;;;;;;;4967663;28;20108;-69
2023/01/17 22:35:27;;;;;;;10.05;4.38;;;;;;;;;;4939732;28;20068;-70
2023/01/17 22:37:54;;;;;;;10.18;4.22;;;;;;;;;;4971568;28;20053;-70
2023/01/17 22:40:21;;;;;;;11.52;4.43;;;;;;;;;;4989441;28;20156;-71
2023/01/17 22:42:48;;;;;;;9.15;4.07;;;;;;;;;;5014458;28;20084;-70
2023/01/17 22:45:18;;;;;;;10.68;4.40;;;;;;;;;;4940364;28;20045;-70